createdAt,value
2022-09-16T00:04:57.518Z,142.40
2022-09-16T00:09:55.716Z,125.87
2022-09-16T00:14:54.162Z,638.23
2022-09-16T00:19:52.601Z,224.40
2022-09-16T00:24:52.212Z,463.00
2022-09-16T00:29:50.495Z,259.10
2022-09-16T00:34:48.970Z,235.50
2022-09-16T00:39:49.930Z,492.33
2022-09-16T00:45:00.640Z,119.50
2022-09-16T00:50:05.148Z,231.20
2022-09-16T00:55:07.623Z,504.13
2022-09-16T01:00:09.598Z,622.47
2022-09-16T01:05:11.379Z,433.73
2022-09-16T01:10:10.643Z,329.17
2022-09-16T01:15:11.070Z,492.90
2022-09-16T01:20:36.523Z,554.73
2022-09-16T01:25:46.493Z,508.80
2022-09-16T01:31:04.215Z,288.23
2022-09-16T01:36:16.976Z,361.27
2022-09-16T01:41:24.518Z,685.50
2022-09-16T01:46:29.819Z,116.53
2022-09-16T01:51:32.831Z,619.00
2022-09-16T01:56:40.943Z,343.20
2022-09-16T02:01:47.864Z,632.83
2022-09-16T02:06:47.599Z,267.00
2022-09-16T02:11:51.349Z,388.03
2022-09-16T02:16:56.095Z,341.43
2022-09-16T02:21:57.026Z,51.33
2022-09-16T02:27:00.809Z,520.20
2022-09-16T02:32:02.807Z,408.80
2022-09-16T02:37:06.051Z,278.13
2022-09-16T02:42:04.702Z,604.73
2022-09-16T02:47:12.053Z,643.77
2022-09-16T02:52:17.470Z,642.13
2022-09-16T02:57:16.312Z,298.57
2022-09-16T03:02:15.830Z,673.77
2022-09-16T03:07:15.282Z,602.53
2022-09-16T03:12:41.875Z,182.33
2022-09-16T03:17:55.497Z,534.50
2022-09-16T03:23:07.232Z,679.73
2022-09-16T03:28:11.147Z,680.23
2022-09-16T03:33:17.474Z,176.50
2022-09-16T03:38:17.189Z,729.27
2022-09-16T03:43:17.211Z,300.73
2022-09-16T03:48:16.827Z,197.50
2022-09-16T03:53:15.104Z,382.77
2022-09-16T03:58:13.272Z,631.67
2022-09-16T04:03:11.402Z,643.73
2022-09-16T04:08:10.947Z,183.80
2022-09-16T04:13:09.615Z,449.40
2022-09-16T04:18:07.843Z,236.60
2022-09-16T04:23:06.067Z,562.70
2022-09-16T04:28:05.577Z,404.87
2022-09-16T04:33:03.741Z,552.37
2022-09-16T04:38:01.866Z,274.07
2022-09-16T04:43:00.110Z,189.00
2022-09-16T04:47:59.922Z,348.33
2022-09-16T04:52:58.271Z,453.83
2022-09-16T04:57:56.436Z,504.97
2022-09-16T05:02:54.952Z,555.47
2022-09-16T05:07:54.585Z,713.23
2022-09-16T05:12:53.325Z,475.63
2022-09-16T05:17:52.001Z,675.07
2022-09-16T05:22:51.595Z,319.40
2022-09-16T05:27:51.135Z,374.80
2022-09-16T05:32:53.873Z,349.03
2022-09-16T05:37:52.415Z,651.33
2022-09-16T05:42:51.911Z,738.93
2022-09-16T05:47:50.344Z,358.97
2022-09-16T05:52:48.884Z,264.87
2022-09-16T05:57:47.124Z,194.83
2022-09-16T06:02:48.243Z,546.77
2022-09-16T06:07:46.699Z,206.73
2022-09-16T06:12:44.961Z,111.73
2022-09-16T06:17:43.097Z,574.17
2022-09-16T06:22:42.609Z,441.33
2022-09-16T06:27:40.785Z,275.83
2022-09-16T06:32:38.993Z,367.63
2022-09-16T06:37:37.131Z,685.73
2022-09-16T06:42:36.785Z,766.07
2022-09-16T06:47:35.180Z,170.13
2022-09-16T06:52:34.033Z,755.63
2022-09-16T06:57:32.504Z,144.97
2022-09-16T07:02:32.275Z,265.80
2022-09-16T07:07:31.922Z,601.43
2022-09-16T07:12:30.160Z,242.33
2022-09-16T07:17:28.553Z,567.57
2022-09-16T07:22:31.552Z,254.77
2022-09-16T07:27:31.200Z,625.03
2022-09-16T07:32:29.373Z,181.90
2022-09-16T07:37:28.889Z,150.03
2022-09-16T07:42:27.148Z,435.53
2022-09-16T07:47:25.538Z,171.60
2022-09-16T07:52:26.023Z,139.43
2022-09-16T07:57:25.745Z,383.73
2022-09-16T08:02:23.984Z,280.67
2022-09-16T08:07:22.222Z,318.80
2022-09-16T08:12:20.480Z,436.97
2022-09-16T08:17:20.099Z,348.93
2022-09-16T08:22:18.243Z,109.93
2022-09-16T08:27:16.431Z,138.23
2022-09-16T08:32:14.705Z,378.30
2022-09-16T08:37:14.209Z,291.97
2022-09-16T08:42:32.738Z,312.10
2022-09-16T08:47:43.227Z,380.10
2022-09-16T08:52:45.014Z,323.47
2022-09-16T08:57:49.872Z,164.13
2022-09-16T09:02:53.791Z,233.03
2022-09-16T09:08:14.025Z,484.03
2022-09-16T09:13:22.895Z,495.57
2022-09-16T09:18:39.047Z,202.40
2022-09-16T09:23:52.050Z,438.40
2022-09-16T09:29:22.150Z,383.17
2022-09-16T09:34:35.923Z,102.67
2022-09-16T09:39:46.706Z,62.80
2022-09-16T09:44:53.426Z,103.00
2022-09-16T09:49:56.145Z,14.57
2022-09-16T09:54:56.755Z,315.50
2022-09-16T10:00:02.088Z,16.67
2022-09-16T10:05:25.995Z,8.33
2022-09-16T10:10:27.767Z,112.10
2022-09-16T10:15:30.102Z,5.27
2022-09-16T10:20:31.684Z,13.10
2022-09-16T10:25:33.148Z,16.00
2022-09-16T10:30:34.257Z,10.03
2022-09-16T10:35:34.705Z,46.80
2022-09-16T10:40:35.443Z,9.07
2022-09-16T10:45:37.547Z,56.43
2022-09-16T10:50:35.836Z,483.33
2022-09-16T10:55:37.888Z,359.77
2022-09-16T11:00:45.965Z,68.80
2022-09-16T11:05:53.815Z,219.27
2022-09-16T11:11:00.310Z,385.93
2022-09-16T11:16:12.880Z,85.20
2022-09-16T11:21:35.912Z,352.27
2022-09-16T11:26:45.988Z,22.43
2022-09-16T11:31:53.672Z,109.43
2022-09-16T11:37:02.969Z,195.57
2022-09-16T11:42:08.265Z,247.47
2022-09-16T11:47:28.615Z,35.40
2022-09-16T11:52:43.370Z,103.67
2022-09-16T11:57:46.975Z,248.90
2022-09-16T12:02:51.341Z,182.47
2022-09-16T12:07:58.348Z,272.50
2022-09-16T12:13:06.243Z,454.50
2022-09-16T12:18:10.652Z,400.50
2022-09-16T12:23:16.985Z,338.23
2022-09-16T12:28:21.511Z,287.20
2022-09-16T12:33:23.736Z,111.87
2022-09-16T12:38:23.324Z,78.17
2022-09-16T12:43:40.804Z,298.33
2022-09-16T12:49:03.299Z,239.23
2022-09-16T12:54:19.339Z,179.20
2022-09-16T12:59:39.981Z,426.90
2022-09-16T13:04:41.845Z,13.83
2022-09-16T13:09:41.658Z,399.87
2022-09-16T13:14:48.833Z,269.07
2022-09-16T13:19:51.067Z,239.37
2022-09-16T13:24:54.702Z,369.17
2022-09-16T13:30:06.014Z,421.73
2022-09-16T13:35:06.367Z,332.47
2022-09-16T13:40:18.650Z,366.87
2022-09-16T13:45:35.567Z,487.97
2022-09-16T13:50:35.612Z,82.60
2022-09-16T13:55:34.313Z,200.63
2022-09-16T14:00:39.022Z,262.80
2022-09-16T14:05:59.091Z,240.77
2022-09-16T14:11:02.880Z,388.60
2022-09-16T14:16:02.882Z,430.73
2022-09-16T14:21:02.791Z,289.40
2022-09-16T14:26:11.625Z,293.93
2022-09-16T14:31:16.493Z,233.33
2022-09-16T14:36:19.866Z,366.27
2022-09-16T14:41:27.033Z,327.83
2022-09-16T14:46:27.443Z,384.90
2022-09-16T14:51:28.514Z,451.57
2022-09-16T14:56:29.126Z,176.60
2022-09-16T15:01:29.282Z,491.40
2022-09-16T15:06:31.503Z,183.73
2022-09-16T15:11:47.639Z,392.40
2022-09-16T15:16:51.477Z,445.70
2022-09-16T15:21:50.177Z,112.60
2022-09-16T15:26:49.134Z,393.20
2022-09-16T15:31:50.354Z,312.97
2022-09-16T15:36:51.150Z,346.27
2022-09-16T15:41:49.641Z,343.00
2022-09-16T15:46:50.426Z,371.77
2022-09-16T15:51:51.420Z,226.57
2022-09-16T15:56:59.021Z,242.57
2022-09-16T16:02:00.865Z,338.57
2022-09-16T16:43:40.997Z,1.40
2022-09-16T16:48:40.031Z,1.57
2022-09-16T16:53:38.878Z,0.80
2022-09-16T16:58:37.791Z,1.27
2022-09-16T17:03:37.678Z,1.10
2022-09-16T17:08:37.918Z,1.10
2022-09-16T17:13:36.641Z,0.83
2022-09-16T17:18:35.505Z,1.00
2022-09-16T17:23:35.692Z,1.13
2022-09-16T17:28:34.211Z,0.83
2022-09-16T17:33:32.364Z,0.80
2022-09-16T17:38:31.005Z,0.90
2022-09-16T17:43:32.654Z,0.80
2022-09-16T17:48:31.954Z,1.43
2022-09-16T17:53:30.479Z,0.90
2022-09-16T17:58:30.160Z,0.70
2022-09-16T18:03:29.287Z,1.17
2022-09-16T18:08:31.126Z,1.33
2022-09-16T18:13:30.638Z,1.10
2022-09-16T18:18:28.769Z,0.80
2022-09-16T18:23:27.495Z,0.90
2022-09-16T18:28:26.070Z,0.70
2022-09-16T18:39:36.653Z,0.90
2022-09-16T18:44:34.724Z,0.90
2022-09-16T18:49:32.949Z,1.03
2022-09-16T18:54:31.179Z,0.80
2022-09-16T18:59:32.793Z,1.10
2022-09-16T19:04:33.539Z,1.00
2022-09-16T19:09:31.908Z,0.93
2022-09-16T19:14:31.448Z,0.93
2022-09-16T19:19:29.727Z,0.90
2022-09-16T19:24:28.111Z,0.97
2022-09-16T19:29:26.354Z,0.70
2022-09-16T19:34:25.890Z,2.03
2022-09-16T19:39:24.735Z,0.90
2022-09-16T19:44:23.147Z,1.00
2022-09-16T19:49:22.971Z,0.80
2022-09-16T19:54:24.194Z,1.00
2022-09-16T19:59:22.657Z,1.00
2022-09-16T20:04:21.118Z,0.80
2022-09-16T20:09:20.133Z,0.73
2022-09-16T20:14:21.788Z,1.00
2022-09-16T20:19:20.792Z,0.80
2022-09-16T20:24:21.183Z,0.77
2022-09-16T20:29:21.463Z,0.87
2022-09-16T20:34:24.235Z,1.47
2022-09-16T20:39:22.813Z,0.90
2022-09-16T20:44:22.357Z,1.00
2022-09-16T20:49:23.042Z,1.23
2022-09-16T20:54:21.352Z,1.00
2022-09-16T20:59:21.499Z,1.00
2022-09-16T21:04:21.921Z,0.80
2022-09-16T21:09:20.094Z,1.13
2022-09-16T21:14:21.558Z,1.00
2022-09-16T21:19:21.192Z,1.00
2022-09-16T21:24:19.500Z,1.00
2022-09-16T21:29:20.854Z,1.20
2022-09-16T21:34:21.832Z,1.07
2022-09-16T21:39:21.850Z,1.30
2022-09-16T21:44:20.028Z,1.30
2022-09-16T21:49:22.434Z,1.67
2022-09-16T21:54:20.876Z,1.20
2022-09-16T21:59:20.372Z,1.53
2022-09-16T22:04:21.974Z,1.20
2022-09-16T22:09:20.121Z,1.20
2022-09-16T22:14:20.890Z,1.13
2022-09-16T22:19:21.468Z,1.13
2022-09-16T22:24:21.518Z,1.00
2022-09-16T22:29:20.258Z,1.17
2022-09-16T22:34:18.462Z,1.10
2022-09-16T22:39:19.809Z,1.27
2022-09-16T22:44:17.876Z,1.07
2022-09-16T22:49:16.865Z,1.10
2022-09-16T22:54:15.830Z,1.23
2022-09-16T22:59:18.685Z,1.30
2022-09-16T23:04:17.350Z,1.50
2022-09-16T23:09:16.098Z,1.23
2022-09-16T23:14:20.786Z,1.20
2022-09-16T23:19:19.301Z,1.10
2022-09-16T23:24:19.351Z,1.03
2022-09-16T23:29:19.364Z,1.00
2022-09-16T23:34:19.463Z,1.40
2022-09-16T23:39:18.353Z,1.50
2022-09-16T23:44:19.136Z,1.20
2022-09-16T23:49:20.268Z,1.03
2022-09-16T23:54:18.416Z,1.33
2022-09-16T23:59:18.048Z,1.27
